createdAt,value
2018-03-22T00:00:31.699Z,21.05
2018-03-22T00:02:04.237Z,22.75
2018-03-22T00:03:36.759Z,22.75
2018-03-22T00:05:09.279Z,22.20
2018-03-22T00:06:42.633Z,23.12
2018-03-22T00:08:15.176Z,22.42
2018-03-22T00:09:47.681Z,22.50
2018-03-22T00:11:20.230Z,24.23
2018-03-22T00:12:52.750Z,20.65
2018-03-22T00:14:25.268Z,22.77
2018-03-22T00:15:58.624Z,21.23
2018-03-22T00:17:31.218Z,22.45
2018-03-22T00:19:03.748Z,22.35
2018-03-22T00:20:37.039Z,21.73
2018-03-22T00:22:21.637Z,20.85
2018-03-22T00:23:54.191Z,22.37
2018-03-22T00:25:26.746Z,20.83
2018-03-22T00:26:59.272Z,22.00
2018-03-22T00:28:31.809Z,21.27
2018-03-22T00:30:04.424Z,20.73
2018-03-22T00:31:37.691Z,21.90
2018-03-22T00:33:10.218Z,21.60
2018-03-22T00:34:42.720Z,21.70
2018-03-22T00:36:15.262Z,20.45
2018-03-22T00:37:47.774Z,22.85
2018-03-22T00:39:21.063Z,21.33
2018-03-22T00:40:54.368Z,23.30
2018-03-22T00:42:26.908Z,22.17
2018-03-22T00:43:59.435Z,22.73
2018-03-22T00:45:31.940Z,20.80
2018-03-22T00:47:08.889Z,22.08
2018-03-22T00:48:41.420Z,21.33
2018-03-22T00:50:13.948Z,21.80
2018-03-22T00:51:46.464Z,20.10
2018-03-22T00:53:19.013Z,21.12
2018-03-22T00:54:51.531Z,22.37
2018-03-22T00:56:24.065Z,21.05
2018-03-22T00:57:56.595Z,22.55
2018-03-22T00:59:29.124Z,22.80
2018-03-22T01:01:01.651Z,21.75
2018-03-22T01:02:34.920Z,21.00
2018-03-22T01:04:08.209Z,22.20
2018-03-22T01:05:41.496Z,22.37
2018-03-22T01:07:14.792Z,22.17
2018-03-22T01:08:48.083Z,20.95
2018-03-22T01:10:21.367Z,22.62
2018-03-22T01:11:54.644Z,22.05
2018-03-22T01:13:27.971Z,20.77
2018-03-22T01:15:00.476Z,21.30
2018-03-22T01:16:32.997Z,22.75
2018-03-22T01:18:05.506Z,21.02
2018-03-22T01:19:38.027Z,20.48
2018-03-22T01:21:10.584Z,21.20
2018-03-22T01:22:43.870Z,21.80
2018-03-22T01:24:16.393Z,22.00
2018-03-22T01:25:48.991Z,20.80
2018-03-22T01:27:22.262Z,21.15
2018-03-22T01:28:54.832Z,21.40
2018-03-22T01:30:37.231Z,22.67
2018-03-22T01:32:09.788Z,22.23
2018-03-22T01:33:42.356Z,20.40
2018-03-22T01:35:14.868Z,21.65
2018-03-22T01:36:48.200Z,19.95
2018-03-22T01:38:20.744Z,22.00
2018-03-22T01:39:53.244Z,21.10
2018-03-22T01:41:25.758Z,21.23
2018-03-22T01:42:59.024Z,21.08
2018-03-22T01:44:32.307Z,22.37
2018-03-22T01:46:04.815Z,22.40
2018-03-22T01:47:37.326Z,24.35
2018-03-22T01:49:09.919Z,23.02
2018-03-22T01:50:42.430Z,22.45
2018-03-22T01:52:14.936Z,22.55
2018-03-22T01:53:47.454Z,21.90
2018-03-22T01:55:20.723Z,21.00
2018-03-22T01:56:53.272Z,23.50
2018-03-22T01:58:26.558Z,22.77
2018-03-22T01:59:59.086Z,23.00
2018-03-22T02:01:31.584Z,22.85
2018-03-22T02:03:04.103Z,22.00
2018-03-22T02:04:36.615Z,23.70
2018-03-22T02:06:09.152Z,23.15
2018-03-22T02:07:41.712Z,23.58
2018-03-22T02:09:14.234Z,21.73
2018-03-22T02:10:46.784Z,22.55
2018-03-22T02:12:20.088Z,21.80
2018-03-22T02:13:52.629Z,22.65
2018-03-22T02:15:25.929Z,21.70
2018-03-22T02:16:58.438Z,22.35
2018-03-22T02:18:31.766Z,23.65
2018-03-22T02:20:04.276Z,23.85
2018-03-22T02:21:37.565Z,22.65
2018-03-22T02:23:10.850Z,22.83
2018-03-22T02:24:44.132Z,22.20
2018-03-22T02:26:17.407Z,23.08
2018-03-22T02:27:49.958Z,22.98
2018-03-22T02:29:22.523Z,22.83
2018-03-22T02:30:55.022Z,23.75
2018-03-22T02:32:28.299Z,23.00
2018-03-22T02:34:01.001Z,24.27
2018-03-22T02:35:34.263Z,21.35
2018-03-22T02:37:06.793Z,22.60
2018-03-22T02:38:39.294Z,22.67
2018-03-22T02:40:11.836Z,22.42
2018-03-22T02:41:44.352Z,22.90
2018-03-22T02:43:16.864Z,25.50
2018-03-22T02:44:49.381Z,23.87
2018-03-22T02:46:22.672Z,22.90
2018-03-22T02:47:55.947Z,23.50
2018-03-22T02:49:29.252Z,22.75
2018-03-22T02:51:02.552Z,24.15
2018-03-22T02:52:35.053Z,23.50
2018-03-22T02:54:07.557Z,22.85
2018-03-22T02:55:40.856Z,22.62
2018-03-22T02:57:14.143Z,24.42
2018-03-22T02:58:47.449Z,23.83
2018-03-22T03:00:19.956Z,22.73
2018-03-22T03:01:52.470Z,23.50
2018-03-22T03:03:24.990Z,23.70
2018-03-22T03:04:57.504Z,23.38
2018-03-22T03:06:30.788Z,23.30
2018-03-22T03:08:04.052Z,24.73
2018-03-22T03:09:36.612Z,23.77
2018-03-22T03:11:09.127Z,24.33
2018-03-22T03:12:41.644Z,25.65
2018-03-22T03:14:14.165Z,23.90
2018-03-22T03:15:46.685Z,23.33
2018-03-22T03:17:19.188Z,24.20
2018-03-22T03:18:51.714Z,23.40
2018-03-22T03:20:24.213Z,23.73
2018-03-22T03:21:57.482Z,22.37
2018-03-22T03:23:30.770Z,25.30
2018-03-22T03:25:04.057Z,24.60
2018-03-22T03:26:37.355Z,25.42
2018-03-22T03:28:10.623Z,24.33
2018-03-22T03:29:43.137Z,23.65
2018-03-22T03:31:15.634Z,24.02
2018-03-22T03:32:48.132Z,22.40
2018-03-22T03:34:21.396Z,24.85
2018-03-22T03:35:53.928Z,24.40
2018-03-22T03:37:26.446Z,22.40
2018-03-22T03:38:58.970Z,25.10
2018-03-22T03:40:31.514Z,24.12
2018-03-22T03:42:04.058Z,23.92
2018-03-22T03:43:36.578Z,24.35
2018-03-22T03:45:09.085Z,23.25
2018-03-22T03:46:41.594Z,24.05
2018-03-22T03:48:14.129Z,24.35
2018-03-22T03:49:46.630Z,23.38
2018-03-22T03:51:19.151Z,25.12
2018-03-22T03:52:51.667Z,24.08
2018-03-22T03:54:24.187Z,23.52
2018-03-22T03:55:56.725Z,24.23
2018-03-22T03:57:29.218Z,23.20
2018-03-22T03:59:01.731Z,23.17
2018-03-22T04:00:34.246Z,26.17
2018-03-22T04:02:06.751Z,22.27
2018-03-22T04:03:40.006Z,24.55
2018-03-22T04:05:12.520Z,23.70
2018-03-22T04:06:45.016Z,24.17
2018-03-22T04:08:17.510Z,24.48
2018-03-22T04:09:50.006Z,24.87
2018-03-22T04:11:23.288Z,23.85
2018-03-22T04:12:56.535Z,23.60
2018-03-22T04:14:29.026Z,24.52
2018-03-22T04:16:01.536Z,23.83
2018-03-22T04:17:34.038Z,24.37
2018-03-22T04:19:06.519Z,23.00
2018-03-22T04:20:39.027Z,24.60
2018-03-22T04:22:11.534Z,25.73
2018-03-22T04:23:44.034Z,24.30
2018-03-22T04:25:16.543Z,26.50
2018-03-22T04:26:49.092Z,25.20
2018-03-22T04:28:21.561Z,24.27
2018-03-22T04:29:54.810Z,26.52
2018-03-22T04:31:27.337Z,25.77
2018-03-22T04:32:59.824Z,24.55
2018-03-22T04:34:32.322Z,23.73
2018-03-22T04:36:04.839Z,25.33
2018-03-22T04:37:37.338Z,24.42
2018-03-22T04:39:09.836Z,25.10
2018-03-22T04:40:42.350Z,25.48
2018-03-22T04:42:14.852Z,27.40
2018-03-22T04:43:47.343Z,22.40
2018-03-22T04:45:20.609Z,26.23
2018-03-22T04:46:53.125Z,24.27
2018-03-22T04:48:25.624Z,26.15
2018-03-22T04:51:36.176Z,24.70
2018-03-22T04:53:08.667Z,26.90
2018-03-22T04:54:41.161Z,26.00
2018-03-22T04:56:13.674Z,27.13
2018-03-22T04:57:46.930Z,25.23
2018-03-22T04:59:19.508Z,24.02
2018-03-22T05:00:51.982Z,26.73
2018-03-22T05:02:24.482Z,27.08
2018-03-22T05:03:56.982Z,25.08
2018-03-22T05:05:29.477Z,26.90
2018-03-22T05:07:01.983Z,26.70
2018-03-22T05:08:34.485Z,26.08
2018-03-22T05:10:06.993Z,26.40
2018-03-22T05:11:40.283Z,26.62
2018-03-22T05:13:13.566Z,27.83
2018-03-22T05:14:46.826Z,25.83
2018-03-22T05:16:19.348Z,28.92
2018-03-22T05:17:51.842Z,28.55
2018-03-22T05:19:24.338Z,31.48
2018-03-22T05:20:56.841Z,28.45
2018-03-22T05:22:29.350Z,29.00
2018-03-22T05:24:01.859Z,27.62
2018-03-22T05:25:35.116Z,28.17
2018-03-22T05:27:07.623Z,28.17
2018-03-22T05:28:40.122Z,27.13
2018-03-22T05:30:12.621Z,27.45
2018-03-22T05:31:45.134Z,26.62
2018-03-22T05:33:17.630Z,27.50
2018-03-22T05:34:50.138Z,29.25
2018-03-22T05:36:22.649Z,27.10
2018-03-22T05:37:55.138Z,27.13
2018-03-22T05:39:27.639Z,28.02
2018-03-22T05:41:00.144Z,30.88
2018-03-22T05:42:32.674Z,28.05
2018-03-22T05:44:05.261Z,28.60
2018-03-22T05:45:38.529Z,29.23
2018-03-22T05:47:11.051Z,27.10
2018-03-22T05:48:43.554Z,27.77
2018-03-22T05:50:16.043Z,28.27
2018-03-22T05:51:49.461Z,29.30
2018-03-22T05:53:21.967Z,28.80
2018-03-22T05:54:54.453Z,30.98
2018-03-22T05:56:26.946Z,28.87
2018-03-22T05:57:59.468Z,28.27
2018-03-22T05:59:31.954Z,30.77
2018-03-22T06:01:04.453Z,29.98
2018-03-22T06:02:36.965Z,29.42
2018-03-22T06:04:09.464Z,31.17
2018-03-22T06:05:42.562Z,29.67
2018-03-22T06:07:15.832Z,29.40
2018-03-22T06:08:49.273Z,30.50
2018-03-22T06:10:21.763Z,29.40
2018-03-22T06:11:54.273Z,31.48
2018-03-22T06:13:27.540Z,31.40
2018-03-22T06:15:00.040Z,28.48
2018-03-22T06:16:32.532Z,27.98
2018-03-22T06:18:05.041Z,30.80
2018-03-22T06:19:37.538Z,30.20
2018-03-22T06:21:10.034Z,33.63
2018-03-22T06:22:42.551Z,35.22
2018-03-22T06:24:15.814Z,35.60
2018-03-22T06:25:48.311Z,35.95
2018-03-22T06:27:21.586Z,36.10
2018-03-22T06:28:54.858Z,36.28
2018-03-22T06:30:27.361Z,39.25
2018-03-22T06:32:00.630Z,34.30
